sensor_id;sensor_type;location;lat;lon;timestamp;pressure;altitude;pressure_sealevel;temperature;humidity
64616;BME280;51027;42.162;24.754;2023-01-16T00:02:20;99911.88;;;5.41;100.00
64616;BME280;51027;42.162;24.754;2023-01-16T00:04:46;99914.53;;;5.39;100.00
64616;BME280;51027;42.162;24.754;2023-01-16T00:07:12;99905.78;;;5.40;100.00
64616;BME280;51027;42.162;24.754;2023-01-16T00:09:37;99903.31;;;5.31;100.00
64616;BME280;51027;42.162;24.754;2023-01-16T00:12:03;99900.72;;;5.33;100.00
64616;BME280;51027;42.162;24.754;2023-01-16T00:14:29;99895.38;;;5.39;100.00
64616;BME280;51027;42.162;24.754;2023-01-16T00:16:56;99896.00;;;5.56;100.00
64616;BME280;51027;42.162;24.754;2023-01-16T00:19:22;99892.75;;;5.39;100.00
64616;BME280;51027;42.162;24.754;2023-01-16T00:21:47;99888.47;;;5.36;100.00
64616;BME280;51027;42.162;24.754;2023-01-16T00:24:13;99898.97;;;5.32;100.00
64616;BME280;51027;42.162;24.754;2023-01-16T00:26:39;99887.75;;;5.25;100.00
64616;BME280;51027;42.162;24.754;2023-01-16T00:29:05;99886.84;;;5.28;100.00
64616;BME280;51027;42.162;24.754;2023-01-16T00:31:31;99887.84;;;5.17;100.00
64616;BME280;51027;42.162;24.754;2023-01-16T00:33:56;99889.78;;;5.05;100.00
64616;BME280;51027;42.162;24.754;2023-01-16T00:36:22;99890.66;;;5.04;100.00
64616;BME280;51027;42.162;24.754;2023-01-16T00:38:48;99891.78;;;4.84;100.00
64616;BME280;51027;42.162;24.754;2023-01-16T00:41:14;99880.50;;;4.82;100.00
64616;BME280;51027;42.162;24.754;2023-01-16T00:43:40;99888.28;;;4.85;100.00
64616;BME280;51027;42.162;24.754;2023-01-16T00:46:05;99881.41;;;4.78;100.00
64616;BME280;51027;42.162;24.754;2023-01-16T00:48:31;99871.84;;;4.79;100.00
64616;BME280;51027;42.162;24.754;2023-01-16T00:50:57;99878.94;;;4.71;100.00
64616;BME280;51027;42.162;24.754;2023-01-16T00:53:22;99875.47;;;4.70;100.00
64616;BME280;51027;42.162;24.754;2023-01-16T00:55:50;99870.03;;;4.85;100.00
64616;BME280;51027;42.162;24.754;2023-01-16T00:58:16;99868.53;;;4.66;100.00
64616;BME280;51027;42.162;24.754;2023-01-16T01:00:42;99861.72;;;4.54;100.00
64616;BME280;51027;42.162;24.754;2023-01-16T01:03:10;99864.19;;;4.67;100.00
64616;BME280;51027;42.162;24.754;2023-01-16T01:05:37;99872.84;;;4.70;100.00
64616;BME280;51027;42.162;24.754;2023-01-16T01:08:04;99863.41;;;4.60;100.00
64616;BME280;51027;42.162;24.754;2023-01-16T01:10:30;99870.31;;;4.64;100.00
64616;BME280;51027;42.162;24.754;2023-01-16T01:12:56;99873.66;;;4.74;100.00
64616;BME280;51027;42.162;24.754;2023-01-16T01:15:25;99873.66;;;4.74;100.00
64616;BME280;51027;42.162;24.754;2023-01-16T01:17:50;99870.09;;;4.79;100.00
64616;BME280;51027;42.162;24.754;2023-01-16T01:20:35;99866.47;;;4.89;100.00
64616;BME280;51027;42.162;24.754;2023-01-16T01:23:03;99868.31;;;4.84;100.00
64616;BME280;51027;42.162;24.754;2023-01-16T01:25:28;99855.22;;;4.86;100.00
64616;BME280;51027;42.162;24.754;2023-01-16T01:27:54;99862.19;;;4.87;100.00
64616;BME280;51027;42.162;24.754;2023-01-16T01:30:20;99857.06;;;4.79;100.00
64616;BME280;51027;42.162;24.754;2023-01-16T01:32:46;99848.28;;;4.86;100.00
64616;BME280;51027;42.162;24.754;2023-01-16T01:35:11;99850.03;;;4.84;100.00
64616;BME280;51027;42.162;24.754;2023-01-16T01:37:37;99856.03;;;4.93;100.00
64616;BME280;51027;42.162;24.754;2023-01-16T01:40:04;99848.38;;;4.80;100.00
64616;BME280;51027;42.162;24.754;2023-01-16T01:42:36;99846.53;;;4.85;100.00
64616;BME280;51027;42.162;24.754;2023-01-16T01:48:02;99851.63;;;4.96;100.00
64616;BME280;51027;42.162;24.754;2023-01-16T01:51:00;99850.97;;;4.80;100.00
64616;BME280;51027;42.162;24.754;2023-01-16T01:53:34;99842.97;;;4.93;100.00
64616;BME280;51027;42.162;24.754;2023-01-16T01:56:10;99844.72;;;4.92;100.00
64616;BME280;51027;42.162;24.754;2023-01-16T01:58:37;99834.09;;;5.06;100.00
64616;BME280;51027;42.162;24.754;2023-01-16T02:01:07;99835.69;;;5.14;100.00
64616;BME280;51027;42.162;24.754;2023-01-16T02:03:37;99830.56;;;5.08;100.00
64616;BME280;51027;42.162;24.754;2023-01-16T02:06:07;99820.31;;;4.95;100.00
64616;BME280;51027;42.162;24.754;2023-01-16T02:08:35;99835.00;;;5.03;100.00
64616;BME280;51027;42.162;24.754;2023-01-16T02:13:29;99834.88;;;5.09;100.00
64616;BME280;51027;42.162;24.754;2023-01-16T02:15:56;99836.78;;;5.01;100.00
64616;BME280;51027;42.162;24.754;2023-01-16T02:18:41;99838.28;;;5.16;100.00
64616;BME280;51027;42.162;24.754;2023-01-16T02:45:19;99837.81;;;5.46;100.00
64616;BME280;51027;42.162;24.754;2023-01-16T02:50:51;99837.72;;;5.51;100.00
64616;BME280;51027;42.162;24.754;2023-01-16T02:56:31;99838.44;;;5.62;100.00
64616;BME280;51027;42.162;24.754;2023-01-16T02:58:58;99837.69;;;5.54;100.00
64616;BME280;51027;42.162;24.754;2023-01-16T03:01:24;99836.13;;;5.42;100.00
64616;BME280;51027;42.162;24.754;2023-01-16T03:14:21;99812.41;;;5.56;100.00
64616;BME280;51027;42.162;24.754;2023-01-16T03:24:36;99801.72;;;5.68;100.00
64616;BME280;51027;42.162;24.754;2023-01-16T03:29:49;99798.22;;;5.69;100.00
64616;BME280;51027;42.162;24.754;2023-01-16T03:32:33;99798.19;;;5.72;100.00
64616;BME280;51027;42.162;24.754;2023-01-16T03:37:35;99775.72;;;5.61;100.00
64616;BME280;51027;42.162;24.754;2023-01-16T03:40:07;99793.78;;;5.74;100.00
64616;BME280;51027;42.162;24.754;2023-01-16T03:42:42;99785.13;;;5.71;100.00
64616;BME280;51027;42.162;24.754;2023-01-16T03:45:12;99767.03;;;5.60;100.00
64616;BME280;51027;42.162;24.754;2023-01-16T03:47:44;99782.66;;;5.62;100.00
64616;BME280;51027;42.162;24.754;2023-01-16T03:50:12;99771.28;;;5.66;100.00
64616;BME280;51027;42.162;24.754;2023-01-16T03:52:41;99779.88;;;5.74;100.00
64616;BME280;51027;42.162;24.754;2023-01-16T03:55:16;99767.69;;;5.73;100.00
64616;BME280;51027;42.162;24.754;2023-01-16T03:58:31;99770.41;;;5.67;100.00
64616;BME280;51027;42.162;24.754;2023-01-16T04:04:14;99764.59;;;5.49;100.00
64616;BME280;51027;42.162;24.754;2023-01-16T04:06:48;99769.00;;;5.47;100.00
64616;BME280;51027;42.162;24.754;2023-01-16T04:09:24;99771.53;;;5.54;100.00
64616;BME280;51027;42.162;24.754;2023-01-16T04:11:52;99767.78;;;5.67;100.00
64616;BME280;51027;42.162;24.754;2023-01-16T04:14:21;99768.91;;;5.54;100.00
64616;BME280;51027;42.162;24.754;2023-01-16T04:16:48;99763.66;;;5.55;100.00
64616;BME280;51027;42.162;24.754;2023-01-16T04:19:15;99749.63;;;5.59;100.00
64616;BME280;51027;42.162;24.754;2023-01-16T04:21:45;99748.91;;;5.53;100.00
64616;BME280;51027;42.162;24.754;2023-01-16T04:24:11;99746.94;;;5.64;100.00
64616;BME280;51027;42.162;24.754;2023-01-16T04:26:37;99729.22;;;5.79;100.00
64616;BME280;51027;42.162;24.754;2023-01-16T04:29:02;99736.97;;;5.86;100.00
64616;BME280;51027;42.162;24.754;2023-01-16T04:31:29;99736.19;;;5.79;100.00
64616;BME280;51027;42.162;24.754;2023-01-16T04:33:55;99727.59;;;5.74;100.00
64616;BME280;51027;42.162;24.754;2023-01-16T04:36:22;99725.03;;;5.72;100.00
64616;BME280;51027;42.162;24.754;2023-01-16T04:38:48;99713.00;;;5.64;100.00
64616;BME280;51027;42.162;24.754;2023-01-16T04:41:14;99730.13;;;5.78;100.00
64616;BME280;51027;42.162;24.754;2023-01-16T04:44:02;99724.06;;;5.76;100.00
64616;BME280;51027;42.162;24.754;2023-01-16T04:46:27;99728.50;;;5.73;100.00
64616;BME280;51027;42.162;24.754;2023-01-16T04:48:53;99721.38;;;5.79;100.00
64616;BME280;51027;42.162;24.754;2023-01-16T04:51:18;99724.25;;;5.66;100.00
64616;BME280;51027;42.162;24.754;2023-01-16T04:53:44;99704.41;;;5.57;100.00
64616;BME280;51027;42.162;24.754;2023-01-16T04:56:09;99717.31;;;5.65;100.00
64616;BME280;51027;42.162;24.754;2023-01-16T04:58:34;99708.91;;;5.49;100.00
64616;BME280;51027;42.162;24.754;2023-01-16T05:01:00;99723.47;;;5.61;100.00
64616;BME280;51027;42.162;24.754;2023-01-16T05:03:30;99717.22;;;5.69;100.00
64616;BME280;51027;42.162;24.754;2023-01-16T05:05:58;99719.88;;;5.68;100.00
64616;BME280;51027;42.162;24.754;2023-01-16T05:08:23;99726.88;;;5.66;100.00
64616;BME280;51027;42.162;24.754;2023-01-16T05:10:53;99729.56;;;5.63;100.00
64616;BME280;51027;42.162;24.754;2023-01-16T05:13:18;99719.88;;;5.68;100.00
64616;BME280;51027;42.162;24.754;2023-01-16T05:15:44;99734.03;;;5.56;100.00
64616;BME280;51027;42.162;24.754;2023-01-16T05:18:10;99732.16;;;5.61;100.00
64616;BME280;51027;42.162;24.754;2023-01-16T05:20:37;99728.13;;;5.45;100.00
64616;BME280;51027;42.162;24.754;2023-01-16T05:23:02;99727.19;;;5.49;100.00
64616;BME280;51027;42.162;24.754;2023-01-16T05:25:28;99717.38;;;5.60;100.00
64616;BME280;51027;42.162;24.754;2023-01-16T05:27:54;99720.38;;;5.42;100.00
64616;BME280;51027;42.162;24.754;2023-01-16T05:30:19;99687.69;;;5.18;100.00
64616;BME280;51027;42.162;24.754;2023-01-16T05:32:45;99714.31;;;5.38;100.00
64616;BME280;51027;42.162;24.754;2023-01-16T05:35:11;99712.66;;;5.34;100.00
64616;BME280;51027;42.162;24.754;2023-01-16T05:37:36;99702.25;;;5.33;100.00
64616;BME280;51027;42.162;24.754;2023-01-16T05:40:02;99701.09;;;5.47;100.00
64616;BME280;51027;42.162;24.754;2023-01-16T05:42:28;99692.53;;;5.39;100.00
64616;BME280;51027;42.162;24.754;2023-01-16T05:44:53;99688.31;;;5.31;100.00
64616;BME280;51027;42.162;24.754;2023-01-16T05:47:20;99676.13;;;5.33;100.00
64616;BME280;51027;42.162;24.754;2023-01-16T05:49:45;99700.41;;;5.38;100.00
64616;BME280;51027;42.162;24.754;2023-01-16T05:52:11;99695.22;;;5.36;100.00
64616;BME280;51027;42.162;24.754;2023-01-16T05:54:37;99697.97;;;5.27;100.00
64616;BME280;51027;42.162;24.754;2023-01-16T05:57:05;99695.44;;;5.24;100.00
64616;BME280;51027;42.162;24.754;2023-01-16T05:59:31;99699.75;;;5.25;100.00
64616;BME280;51027;42.162;24.754;2023-01-16T06:01:57;99692.84;;;5.23;100.00
64616;BME280;51027;42.162;24.754;2023-01-16T06:04:23;99692.91;;;5.18;100.00
64616;BME280;51027;42.162;24.754;2023-01-16T06:06:49;99677.13;;;5.26;100.00
64616;BME280;51027;42.162;24.754;2023-01-16T06:09:15;99688.44;;;5.26;100.00
64616;BME280;51027;42.162;24.754;2023-01-16T06:11:40;99679.72;;;5.26;100.00
64616;BME280;51027;42.162;24.754;2023-01-16T06:14:06;99679.66;;;5.29;100.00
64616;BME280;51027;42.162;24.754;2023-01-16T06:16:31;99691.84;;;5.30;100.00
64616;BME280;51027;42.162;24.754;2023-01-16T06:18:57;99693.56;;;5.32;100.00
64616;BME280;51027;42.162;24.754;2023-01-16T06:21:23;99692.66;;;5.33;100.00
64616;BME280;51027;42.162;24.754;2023-01-16T06:23:48;99661.91;;;5.47;100.00
64616;BME280;51027;42.162;24.754;2023-01-16T06:26:14;99696.38;;;5.66;100.00
64616;BME280;51027;42.162;24.754;2023-01-16T06:28:39;99690.59;;;5.49;100.00
64616;BME280;51027;42.162;24.754;2023-01-16T06:31:06;99692.75;;;5.27;100.00
64616;BME280;51027;42.162;24.754;2023-01-16T06:33:31;99692.03;;;5.19;100.00
64616;BME280;51027;42.162;24.754;2023-01-16T06:36:01;99698.03;;;5.24;100.00
64616;BME280;51027;42.162;24.754;2023-01-16T06:38:26;99691.03;;;5.26;100.00
64616;BME280;51027;42.162;24.754;2023-01-16T06:40:52;99698.66;;;5.38;100.00
64616;BME280;51027;42.162;24.754;2023-01-16T06:43:25;99698.72;;;5.35;100.00
64616;BME280;51027;42.162;24.754;2023-01-16T06:45:52;99691.50;;;5.48;100.00
64616;BME280;51027;42.162;24.754;2023-01-16T06:48:17;99689.72;;;5.50;100.00
64616;BME280;51027;42.162;24.754;2023-01-16T06:50:44;99664.94;;;5.26;100.00
64616;BME280;51027;42.162;24.754;2023-01-16T06:53:09;99674.31;;;5.36;100.00
64616;BME280;51027;42.162;24.754;2023-01-16T06:55:44;99685.38;;;5.49;100.00
64616;BME280;51027;42.162;24.754;2023-01-16T06:58:11;99672.31;;;5.49;100.00
64616;BME280;51027;42.162;24.754;2023-01-16T07:00:37;99658.34;;;5.53;100.00
64616;BME280;51027;42.162;24.754;2023-01-16T07:03:03;99670.56;;;5.49;100.00
64616;BME280;51027;42.162;24.754;2023-01-16T07:05:30;99655.06;;;5.40;100.00
64616;BME280;51027;42.162;24.754;2023-01-16T07:07:56;99658.16;;;5.61;100.00
64616;BME280;51027;42.162;24.754;2023-01-16T07:10:22;99666.31;;;5.45;100.00
64616;BME280;51027;42.162;24.754;2023-01-16T07:12:49;99642.97;;;5.36;100.00
64616;BME280;51027;42.162;24.754;2023-01-16T07:15:15;99647.69;;;5.64;100.00
64616;BME280;51027;42.162;24.754;2023-01-16T07:17:58;99628.53;;;5.62;100.00
64616;BME280;51027;42.162;24.754;2023-01-16T07:20:52;99635.22;;;5.76;100.00
64616;BME280;51027;42.162;24.754;2023-01-16T07:23:36;99607.16;;;5.43;100.00
64616;BME280;51027;42.162;24.754;2023-01-16T07:26:05;99626.69;;;5.67;100.00
64616;BME280;51027;42.162;24.754;2023-01-16T07:28:31;99615.75;;;5.93;100.00
64616;BME280;51027;42.162;24.754;2023-01-16T07:30:58;99599.44;;;5.78;100.00
64616;BME280;51027;42.162;24.754;2023-01-16T07:33:23;99611.75;;;6.15;100.00
64616;BME280;51027;42.162;24.754;2023-01-16T07:35:49;99607.56;;;6.08;100.00
64616;BME280;51027;42.162;24.754;2023-01-16T07:38:14;99601.84;;;5.91;100.00
64616;BME280;51027;42.162;24.754;2023-01-16T07:40:40;99612.03;;;5.60;100.00
64616;BME280;51027;42.162;24.754;2023-01-16T07:43:05;99600.75;;;5.58;100.00
64616;BME280;51027;42.162;24.754;2023-01-16T07:45:31;99601.16;;;5.79;100.00
64616;BME280;51027;42.162;24.754;2023-01-16T07:47:56;99588.94;;;5.82;100.00
64616;BME280;51027;42.162;24.754;2023-01-16T07:50:22;99582.41;;;5.62;100.00
64616;BME280;51027;42.162;24.754;2023-01-16T07:52:47;99607.25;;;5.80;100.00
64616;BME280;51027;42.162;24.754;2023-01-16T07:55:13;99595.09;;;5.79;100.00
64616;BME280;51027;42.162;24.754;2023-01-16T07:57:39;99563.69;;;5.39;100.00
64616;BME280;51027;42.162;24.754;2023-01-16T08:00:06;99575.19;;;5.72;100.00
64616;BME280;51027;42.162;24.754;2023-01-16T08:02:32;99587.00;;;5.90;100.00
64616;BME280;51027;42.162;24.754;2023-01-16T08:04:58;99584.19;;;5.59;100.00
64616;BME280;51027;42.162;24.754;2023-01-16T08:07:24;99599.63;;;6.11;100.00
64616;BME280;51027;42.162;24.754;2023-01-16T08:09:50;99605.66;;;5.74;100.00
64616;BME280;51027;42.162;24.754;2023-01-16T08:12:15;99612.38;;;5.86;100.00
64616;BME280;51027;42.162;24.754;2023-01-16T08:14:41;99628.44;;;6.10;100.00
64616;BME280;51027;42.162;24.754;2023-01-16T08:17:08;99637.34;;;6.01;100.00
64616;BME280;51027;42.162;24.754;2023-01-16T08:19:33;99636.47;;;6.00;100.00
64616;BME280;51027;42.162;24.754;2023-01-16T08:21:59;99650.34;;;6.43;100.00
64616;BME280;51027;42.162;24.754;2023-01-16T08:24:24;99648.53;;;6.07;100.00
64616;BME280;51027;42.162;24.754;2023-01-16T08:26:51;99635.63;;;6.00;100.00
64616;BME280;51027;42.162;24.754;2023-01-16T08:29:18;99614.84;;;5.94;100.00
64616;BME280;51027;42.162;24.754;2023-01-16T08:31:44;99633.66;;;6.10;100.00
64616;BME280;51027;42.162;24.754;2023-01-16T08:34:09;99615.47;;;6.05;100.00
64616;BME280;51027;42.162;24.754;2023-01-16T08:36:35;99620.31;;;6.59;100.00
64616;BME280;51027;42.162;24.754;2023-01-16T08:39:01;99631.66;;;6.95;100.00
64616;BME280;51027;42.162;24.754;2023-01-16T08:41:27;99613.06;;;7.04;100.00
64616;BME280;51027;42.162;24.754;2023-01-16T08:44:11;99616.72;;;6.63;100.00
64616;BME280;51027;42.162;24.754;2023-01-16T08:47:01;99621.72;;;6.37;100.00
64616;BME280;51027;42.162;24.754;2023-01-16T08:49:50;99631.50;;;6.28;100.00
64616;BME280;51027;42.162;24.754;2023-01-16T08:52:35;99619.97;;;6.37;100.00
64616;BME280;51027;42.162;24.754;2023-01-16T08:55:02;99602.19;;;6.51;100.00
64616;BME280;51027;42.162;24.754;2023-01-16T08:57:28;99594.69;;;6.72;100.00
64616;BME280;51027;42.162;24.754;2023-01-16T08:59:55;99578.94;;;6.73;100.00
64616;BME280;51027;42.162;24.754;2023-01-16T09:02:22;99603.16;;;6.47;100.00
64616;BME280;51027;42.162;24.754;2023-01-16T09:04:50;99597.97;;;6.46;100.00
64616;BME280;51027;42.162;24.754;2023-01-16T09:07:16;99592.25;;;6.64;100.00
64616;BME280;51027;42.162;24.754;2023-01-16T09:09:41;99573.44;;;6.50;100.00
64616;BME280;51027;42.162;24.754;2023-01-16T09:12:11;99592.16;;;6.33;100.00
64616;BME280;51027;42.162;24.754;2023-01-16T09:14:56;99584.06;;;6.44;100.00
64616;BME280;51027;42.162;24.754;2023-01-16T09:17:23;99582.28;;;6.46;100.00
64616;BME280;51027;42.162;24.754;2023-01-16T09:19:48;99573.09;;;6.63;100.00
64616;BME280;51027;42.162;24.754;2023-01-16T09:22:14;99572.94;;;6.70;100.00
64616;BME280;51027;42.162;24.754;2023-01-16T09:24:40;99565.09;;;6.70;100.00
64616;BME280;51027;42.162;24.754;2023-01-16T09:27:06;99564.44;;;6.61;100.00
64616;BME280;51027;42.162;24.754;2023-01-16T09:29:32;99556.09;;;6.80;100.00
64616;BME280;51027;42.162;24.754;2023-01-16T09:31:58;99532.41;;;6.52;100.00
64616;BME280;51027;42.162;24.754;2023-01-16T09:34:26;99548.78;;;6.60;100.00
64616;BME280;51027;42.162;24.754;2023-01-16T09:36:51;99557.34;;;6.31;100.00
64616;BME280;51027;42.162;24.754;2023-01-16T09:39:17;99543.13;;;6.77;100.00
64616;BME280;51027;42.162;24.754;2023-01-16T09:45:00;99535.38;;;6.72;100.00
64616;BME280;51027;42.162;24.754;2023-01-16T09:47:28;99530.16;;;7.03;100.00
64616;BME280;51027;42.162;24.754;2023-01-16T09:50:05;99539.13;;;6.96;100.00
64616;BME280;51027;42.162;24.754;2023-01-16T09:52:34;99496.69;;;6.83;100.00
64616;BME280;51027;42.162;24.754;2023-01-16T09:55:33;99514.06;;;6.86;100.00
64616;BME280;51027;42.162;24.754;2023-01-16T09:58:22;99515.56;;;6.62;100.00
64616;BME280;51027;42.162;24.754;2023-01-16T10:03:38;99473.25;;;6.46;100.00
64616;BME280;51027;42.162;24.754;2023-01-16T10:06:27;99503.09;;;6.72;100.00
64616;BME280;51027;42.162;24.754;2023-01-16T10:09:19;99502.34;;;6.34;100.00
64616;BME280;51027;42.162;24.754;2023-01-16T10:12:01;99492.47;;;6.78;100.00
64616;BME280;51027;42.162;24.754;2023-01-16T10:29:01;99476.88;;;6.75;100.00
64616;BME280;51027;42.162;24.754;2023-01-16T10:31:43;99472.50;;;6.74;100.00
64616;BME280;51027;42.162;24.754;2023-01-16T10:34:18;99470.59;;;6.80;100.00
64616;BME280;51027;42.162;24.754;2023-01-16T10:36:48;99460.41;;;7.01;100.00
64616;BME280;51027;42.162;24.754;2023-01-16T10:39:18;99460.53;;;6.98;100.00
64616;BME280;51027;42.162;24.754;2023-01-16T10:41:46;99463.66;;;6.79;100.00
64616;BME280;51027;42.162;24.754;2023-01-16T10:44:36;99452.94;;;6.56;100.00
64616;BME280;51027;42.162;24.754;2023-01-16T10:47:32;99445.69;;;6.33;100.00
64616;BME280;51027;42.162;24.754;2023-01-16T10:50:19;99439.22;;;6.48;100.00
64616;BME280;51027;42.162;24.754;2023-01-16T10:52:46;99422.19;;;6.64;100.00
64616;BME280;51027;42.162;24.754;2023-01-16T10:55:13;99407.72;;;6.18;100.00
64616;BME280;51027;42.162;24.754;2023-01-16T10:57:49;99415.91;;;6.39;100.00
64616;BME280;51027;42.162;24.754;2023-01-16T11:00:23;99416.38;;;6.53;100.00
64616;BME280;51027;42.162;24.754;2023-01-16T11:02:58;99415.91;;;6.39;100.00
64616;BME280;51027;42.162;24.754;2023-01-16T11:05:26;99423.13;;;6.29;100.00
64616;BME280;51027;42.162;24.754;2023-01-16T11:07:53;99413.16;;;6.43;100.00
64616;BME280;51027;42.162;24.754;2023-01-16T11:10:23;99400.56;;;6.26;100.00
64616;BME280;51027;42.162;24.754;2023-01-16T11:12:49;99384.66;;;6.34;100.00
64616;BME280;51027;42.162;24.754;2023-01-16T11:15:36;99387.91;;;6.10;100.00
64616;BME280;51027;42.162;24.754;2023-01-16T11:20:55;99394.69;;;6.17;100.00
64616;BME280;51027;42.162;24.754;2023-01-16T11:23:29;99380.28;;;6.00;100.00
64616;BME280;51027;42.162;24.754;2023-01-16T11:25:59;99382.00;;;6.03;100.00
64616;BME280;51027;42.162;24.754;2023-01-16T11:28:28;99389.91;;;6.32;100.00
64616;BME280;51027;42.162;24.754;2023-01-16T11:31:41;99389.06;;;6.64;100.00
64616;BME280;51027;42.162;24.754;2023-01-16T11:33:45;99386.19;;;6.41;100.00
64616;BME280;51027;42.162;24.754;2023-01-16T11:36:17;99377.97;;;6.24;100.00
64616;BME280;51027;42.162;24.754;2023-01-16T11:38:45;99375.78;;;6.40;100.00
64616;BME280;51027;42.162;24.754;2023-01-16T11:41:17;99370.94;;;6.26;100.00
64616;BME280;51027;42.162;24.754;2023-01-16T11:43:44;99371.88;;;6.22;100.00
64616;BME280;51027;42.162;24.754;2023-01-16T11:49:13;99367.44;;;5.93;100.00
64616;BME280;51027;42.162;24.754;2023-01-16T11:51:40;99370.56;;;6.07;100.00
64616;BME280;51027;42.162;24.754;2023-01-16T11:54:15;99373.28;;;6.35;100.00
64616;BME280;51027;42.162;24.754;2023-01-16T12:00:00;99350.22;;;6.49;100.00
64616;BME280;51027;42.162;24.754;2023-01-16T12:13:08;99350.13;;;6.21;100.00
64616;BME280;51027;42.162;24.754;2023-01-16T12:18:38;99342.72;;;6.68;100.00
64616;BME280;51027;42.162;24.754;2023-01-16T12:21:44;99336.84;;;6.60;100.00
64616;BME280;51027;42.162;24.754;2023-01-16T12:29:36;99329.63;;;6.68;100.00
64616;BME280;51027;42.162;24.754;2023-01-16T12:35:06;99317.91;;;7.09;100.00
64616;BME280;51027;42.162;24.754;2023-01-16T12:45:54;99322.75;;;6.93;100.00
64616;BME280;51027;42.162;24.754;2023-01-16T12:51:24;99319.31;;;6.62;100.00
64616;BME280;51027;42.162;24.754;2023-01-16T12:59:34;99313.63;;;7.33;100.00
64616;BME280;51027;42.162;24.754;2023-01-16T13:05:04;99304.56;;;7.17;100.00
64616;BME280;51027;42.162;24.754;2023-01-16T13:07:43;99302.31;;;7.06;100.00
64616;BME280;51027;42.162;24.754;2023-01-16T13:10:34;99300.19;;;7.17;100.00
64616;BME280;51027;42.162;24.754;2023-01-16T13:13:51;99297.06;;;7.33;100.00
64616;BME280;51027;42.162;24.754;2023-01-16T13:16:38;99302.84;;;6.88;100.00
64616;BME280;51027;42.162;24.754;2023-01-16T13:19:09;99299.63;;;6.80;100.00
64616;BME280;51027;42.162;24.754;2023-01-16T13:21:50;99296.31;;;6.73;100.00
64616;BME280;51027;42.162;24.754;2023-01-16T13:24:22;99295.81;;;7.18;100.00
64616;BME280;51027;42.162;24.754;2023-01-16T13:26:54;99290.25;;;7.01;100.00
64616;BME280;51027;42.162;24.754;2023-01-16T13:29:50;99283.69;;;7.15;100.00
64616;BME280;51027;42.162;24.754;2023-01-16T13:34:48;99271.56;;;7.11;100.00
64616;BME280;51027;42.162;24.754;2023-01-16T13:37:42;99271.56;;;7.11;100.00
64616;BME280;51027;42.162;24.754;2023-01-16T13:43:10;99268.94;;;6.85;100.00
64616;BME280;51027;42.162;24.754;2023-01-16T13:46:00;99250.63;;;6.83;100.00
64616;BME280;51027;42.162;24.754;2023-01-16T13:48:32;99244.53;;;6.83;100.00
64616;BME280;51027;42.162;24.754;2023-01-16T13:51:15;99245.88;;;6.68;100.00
64616;BME280;51027;42.162;24.754;2023-01-16T13:53:45;99250.50;;;6.60;100.00
64616;BME280;51027;42.162;24.754;2023-01-16T13:56:15;99258.06;;;6.69;100.00
64616;BME280;51027;42.162;24.754;2023-01-16T13:58:47;99251.31;;;6.90;100.00
64616;BME280;51027;42.162;24.754;2023-01-16T14:01:33;99242.22;;;6.74;100.00
64616;BME280;51027;42.162;24.754;2023-01-16T14:06:51;99204.34;;;6.57;100.00
64616;BME280;51027;42.162;24.754;2023-01-16T14:12:34;99226.81;;;6.64;100.00
64616;BME280;51027;42.162;24.754;2023-01-16T14:15:43;99214.00;;;6.55;100.00
64616;BME280;51027;42.162;24.754;2023-01-16T14:21:18;99212.22;;;6.28;100.00
64616;BME280;51027;42.162;24.754;2023-01-16T14:23:46;99214.16;;;6.21;100.00
64616;BME280;51027;42.162;24.754;2023-01-16T14:31:51;99203.41;;;6.30;100.00
64616;BME280;51027;42.162;24.754;2023-01-16T14:34:23;99211.03;;;6.38;100.00
64616;BME280;51027;42.162;24.754;2023-01-16T14:36:54;99207.91;;;6.27;100.00
64616;BME280;51027;42.162;24.754;2023-01-16T14:39:31;99192.63;;;6.13;100.00
64616;BME280;51027;42.162;24.754;2023-01-16T14:42:02;99214.97;;;6.23;100.00
64616;BME280;51027;42.162;24.754;2023-01-16T14:47:49;99228.06;;;6.51;100.00
64616;BME280;51027;42.162;24.754;2023-01-16T14:50:44;99225.72;;;6.42;100.00
64616;BME280;51027;42.162;24.754;2023-01-16T14:53:37;99229.19;;;6.43;100.00
64616;BME280;51027;42.162;24.754;2023-01-16T14:56:27;99218.75;;;6.43;100.00
64616;BME280;51027;42.162;24.754;2023-01-16T15:01:32;99197.88;;;6.41;100.00
64616;BME280;51027;42.162;24.754;2023-01-16T15:04:20;99196.50;;;6.57;100.00
64616;BME280;51027;42.162;24.754;2023-01-16T15:06:56;99104.81;;;6.06;100.00
64616;BME280;51027;42.162;24.754;2023-01-16T15:09:27;99189.00;;;6.47;100.00
64616;BME280;51027;42.162;24.754;2023-01-16T15:11:59;99182.00;;;6.47;100.00
64616;BME280;51027;42.162;24.754;2023-01-16T15:14:25;99179.44;;;6.46;100.00
64616;BME280;51027;42.162;24.754;2023-01-16T15:17:16;99175.38;;;6.35;100.00
64616;BME280;51027;42.162;24.754;2023-01-16T15:23:28;99169.66;;;6.23;100.00
64616;BME280;51027;42.162;24.754;2023-01-16T15:31:20;99148.84;;;5.90;100.00
64616;BME280;51027;42.162;24.754;2023-01-16T15:36:31;99136.03;;;5.79;100.00
64616;BME280;51027;42.162;24.754;2023-01-16T15:38:59;99120.94;;;5.60;100.00
64616;BME280;51027;42.162;24.754;2023-01-16T15:41:30;99143.44;;;5.65;100.00
64616;BME280;51027;42.162;24.754;2023-01-16T15:44:20;99137.75;;;5.49;100.00
64616;BME280;51027;42.162;24.754;2023-01-16T15:52:09;99164.34;;;5.33;100.00
64616;BME280;51027;42.162;24.754;2023-01-16T15:54:34;99162.47;;;5.38;100.00
64616;BME280;51027;42.162;24.754;2023-01-16T15:57:01;99162.91;;;5.54;100.00
64616;BME280;51027;42.162;24.754;2023-01-16T15:59:29;99160.69;;;5.38;100.00
64616;BME280;51027;42.162;24.754;2023-01-16T16:02:20;99167.19;;;5.56;100.00
64616;BME280;51027;42.162;24.754;2023-01-16T16:04:49;99152.63;;;5.47;100.00
64616;BME280;51027;42.162;24.754;2023-01-16T16:07:16;99145.84;;;5.40;100.00